createdAt,value
2023-05-01T00:01:05.447Z,0.07
2023-05-01T00:02:45.224Z,0.07
2023-05-01T00:04:24.982Z,0.07
2023-05-01T00:06:04.784Z,0.05
2023-05-01T00:07:44.505Z,0.05
2023-05-01T00:09:24.270Z,0.05
2023-05-01T00:11:04.134Z,0.05
2023-05-01T00:12:43.788Z,0.05
2023-05-01T00:14:23.578Z,0.05
2023-05-01T00:16:03.330Z,0.05
2023-05-01T00:17:43.070Z,0.05
2023-05-01T00:19:22.834Z,0.03
2023-05-01T00:21:02.633Z,0.05
2023-05-01T00:22:42.368Z,0.05
2023-05-01T00:24:22.152Z,0.05
2023-05-01T00:26:01.902Z,0.04
2023-05-01T00:27:41.668Z,0.04
2023-05-01T00:29:21.441Z,0.04
2023-05-01T00:31:01.185Z,0.04
2023-05-01T00:32:40.969Z,0.04
2023-05-01T00:34:20.789Z,0.04
2023-05-01T00:36:00.561Z,0.04
2023-05-01T00:37:40.281Z,0.04
2023-05-01T00:39:20.011Z,0.02
2023-05-01T00:40:59.797Z,0.02
2023-05-01T00:42:39.551Z,0.02
2023-05-01T00:44:19.315Z,0.02
2023-05-01T00:45:59.118Z,0.02
2023-05-01T00:47:38.856Z,0.02
2023-05-01T00:49:18.595Z,0.02
2023-05-01T00:50:58.389Z,0.02
2023-05-01T00:52:38.193Z,0.02
2023-05-01T00:55:57.659Z,0.03
2023-05-01T00:57:37.422Z,0.03
2023-05-01T00:59:17.175Z,0.03
2023-05-01T01:00:57.095Z,0.03
2023-05-01T01:02:36.708Z,0.02
2023-05-01T01:04:16.466Z,0.02
2023-05-01T01:05:56.286Z,0.02
2023-05-01T01:07:36.020Z,0.02
2023-05-01T01:09:15.868Z,0.02
2023-05-01T01:10:55.533Z,0.02
2023-05-01T01:12:35.275Z,0.02
2023-05-01T01:14:15.068Z,0.02
2023-05-01T01:15:54.866Z,0.02
2023-05-01T01:17:34.593Z,0.02
2023-05-01T01:19:14.351Z,0.02
2023-05-01T01:20:54.114Z,0.02
2023-05-01T01:22:33.868Z,0.02
2023-05-01T01:24:13.646Z,0.02
2023-05-01T01:25:53.422Z,0.02
2023-05-01T01:27:33.171Z,0.03
2023-05-01T01:29:12.928Z,0.03
2023-05-01T01:30:52.768Z,0.03
2023-05-01T01:32:32.476Z,0.03
2023-05-01T01:34:12.257Z,0.03
2023-05-01T01:35:52.082Z,0.02
2023-05-01T01:39:11.541Z,0.02
2023-05-01T01:40:51.272Z,0.02
2023-05-01T01:42:31.046Z,0.02
2023-05-01T01:44:10.819Z,0.03
2023-05-01T01:45:50.622Z,0.02
2023-05-01T01:47:30.439Z,0.02
2023-05-01T01:49:10.131Z,0.01
2023-05-01T01:50:49.891Z,0.01
2023-05-01T01:52:29.702Z,0.01
2023-05-01T01:55:49.164Z,0.02
2023-05-01T01:57:28.934Z,0.02
2023-05-01T01:59:08.678Z,0.02
2023-05-01T02:00:48.519Z,0.02
2023-05-01T02:02:28.215Z,0.02
2023-05-01T02:04:07.957Z,0.03
2023-05-01T02:05:47.741Z,0.02
2023-05-01T02:07:27.552Z,0.02
2023-05-01T02:09:07.260Z,0.03
2023-05-01T02:10:47.107Z,0.03
2023-05-01T02:12:26.935Z,0.04
2023-05-01T02:15:46.341Z,0.04
2023-05-01T02:17:26.082Z,0.05
2023-05-01T02:19:06.002Z,0.06
2023-05-01T02:20:45.648Z,0.06
2023-05-01T02:22:25.364Z,0.08
2023-05-01T02:24:05.125Z,0.1
2023-05-01T02:25:44.893Z,0.12
2023-05-01T02:27:24.674Z,0.15
2023-05-01T02:29:04.418Z,0.16
2023-05-01T02:30:44.276Z,0.2
2023-05-01T02:32:23.978Z,0.23
2023-05-01T02:35:43.528Z,0.34
2023-05-01T02:37:23.276Z,0.42
2023-05-01T02:39:03.012Z,0.51
2023-05-01T02:40:42.773Z,0.63
2023-05-01T02:42:22.531Z,0.78
2023-05-01T02:44:02.334Z,0.97
2023-05-01T02:45:42.091Z,1.21
2023-05-01T02:47:21.825Z,1.5
2023-05-01T02:49:01.604Z,1.87
2023-05-01T02:50:41.415Z,2.32
2023-05-01T02:52:21.172Z,2.88
2023-05-01T02:54:00.902Z,3.58
2023-05-01T02:55:40.731Z,4.44
2023-05-01T02:57:20.416Z,5.46
2023-05-01T02:59:00.215Z,6.69
2023-05-01T03:00:40.001Z,8.13
2023-05-01T03:02:19.798Z,9.78
2023-05-01T03:03:59.472Z,11.63
2023-05-01T03:05:39.253Z,12.58
2023-05-01T03:07:18.986Z,12.61
2023-05-01T03:08:58.772Z,12.63
2023-05-01T03:10:38.583Z,12.65
2023-05-01T03:12:18.284Z,12.66
2023-05-01T03:13:58.048Z,12.68
2023-05-01T03:15:37.817Z,12.71
2023-05-01T03:17:17.579Z,12.71
2023-05-01T03:18:57.346Z,12.71
2023-05-01T03:20:37.156Z,12.72
2023-05-01T03:22:16.923Z,12.74
2023-05-01T03:23:56.619Z,12.75
2023-05-01T03:25:36.401Z,12.77
2023-05-01T03:27:16.202Z,12.76
2023-05-01T03:28:55.932Z,12.76
2023-05-01T03:30:35.760Z,12.78
2023-05-01T03:32:15.468Z,12.77
2023-05-01T03:33:55.226Z,12.79
2023-05-01T03:35:34.996Z,12.8
2023-05-01T03:37:14.744Z,12.81
2023-05-01T03:38:54.512Z,12.83
2023-05-01T03:40:34.279Z,12.85
2023-05-01T03:42:14.035Z,12.95
2023-05-01T03:43:53.912Z,20.66
2023-05-01T03:45:33.580Z,21.85
2023-05-01T03:47:13.333Z,15.31
2023-05-01T03:48:53.089Z,14.68
2023-05-01T03:50:32.855Z,13.99
2023-05-01T03:52:12.613Z,14.01
2023-05-01T03:53:52.374Z,14.03
2023-05-01T03:55:32.146Z,14.02
2023-05-01T03:57:11.963Z,14.03
2023-05-01T03:58:51.676Z,14.09
2023-05-01T04:00:31.441Z,14.1
2023-05-01T04:02:11.218Z,14.09
2023-05-01T04:03:50.970Z,14.12
2023-05-01T04:05:30.768Z,14.15
2023-05-01T04:07:10.498Z,14.13
2023-05-01T04:08:50.264Z,14.19
2023-05-01T04:10:30.025Z,14.17
2023-05-01T04:12:09.779Z,14.22
2023-05-01T04:15:29.309Z,14.26
2023-05-01T04:17:09.145Z,14.24
2023-05-01T04:18:48.885Z,14.31
2023-05-01T04:20:28.633Z,14.33
2023-05-01T04:22:08.383Z,14.34
2023-05-01T04:23:48.114Z,14.39
2023-05-01T04:25:27.992Z,14.39
2023-05-01T04:27:07.658Z,14.42
2023-05-01T04:28:47.527Z,14.46
2023-05-01T04:30:27.213Z,14.47
2023-05-01T04:32:06.935Z,14.51
2023-05-01T04:33:46.754Z,14.55
2023-05-01T04:35:26.484Z,14.59
2023-05-01T04:37:06.269Z,14.6
2023-05-01T04:38:46.061Z,14.64
2023-05-01T04:42:05.604Z,14.73
2023-05-01T04:43:45.294Z,14.73
2023-05-01T04:45:25.134Z,14.76
2023-05-01T04:47:04.818Z,14.78
2023-05-01T04:48:44.600Z,20.79
2023-05-01T04:50:24.354Z,14.89
2023-05-01T04:52:04.116Z,14.92
2023-05-01T04:53:43.919Z,14.92
2023-05-01T04:55:23.636Z,14.94
2023-05-01T04:57:03.406Z,14.97
2023-05-01T04:58:43.167Z,14.99
2023-05-01T05:02:02.750Z,15.04
2023-05-01T05:03:42.468Z,15.05
2023-05-01T05:05:22.225Z,15.08
2023-05-01T05:07:01.994Z,15.1
2023-05-01T05:08:41.763Z,15.13
2023-05-01T05:10:21.578Z,15.16
2023-05-01T05:12:01.273Z,15.17
2023-05-01T05:13:41.030Z,15.23
2023-05-01T05:15:20.858Z,15.23
2023-05-01T05:17:00.594Z,15.25
2023-05-01T05:18:40.336Z,15.26
2023-05-01T05:20:20.131Z,15.32
2023-05-01T05:21:59.867Z,15.31
2023-05-01T05:25:19.378Z,15.33
2023-05-01T05:26:59.144Z,15.37
2023-05-01T05:28:38.907Z,15.35
2023-05-01T05:31:58.449Z,15.41
2023-05-01T05:35:17.980Z,15.43
2023-05-01T05:36:57.775Z,15.45
2023-05-01T05:38:37.495Z,15.46
2023-05-01T05:40:17.314Z,15.46
2023-05-01T05:41:57.016Z,15.47
2023-05-01T05:43:36.801Z,15.48
2023-05-01T05:45:16.572Z,15.49
2023-05-01T05:46:56.318Z,15.5
2023-05-01T05:48:36.088Z,27.55
2023-05-01T05:50:15.847Z,15.72
2023-05-01T05:55:15.218Z,15.57
2023-05-01T05:56:54.891Z,15.57
2023-05-01T05:58:34.669Z,15.62
2023-05-01T06:00:14.620Z,15.6
2023-05-01T06:01:54.276Z,15.59
2023-05-01T06:05:13.722Z,15.62
2023-05-01T06:06:53.495Z,15.66
2023-05-01T06:08:33.268Z,15.62
2023-05-01T06:10:13.046Z,15.65
2023-05-01T06:11:52.792Z,15.67
2023-05-01T06:15:12.298Z,15.74
2023-05-01T06:16:52.070Z,15.74
2023-05-01T06:18:31.835Z,15.74
2023-05-01T06:20:11.666Z,15.81
2023-05-01T06:21:51.368Z,15.8
2023-05-01T06:23:31.136Z,15.84
2023-05-01T06:25:10.895Z,15.89
2023-05-01T06:26:50.669Z,15.92
2023-05-01T06:28:30.418Z,15.9
2023-05-01T06:30:10.177Z,15.92
2023-05-01T06:31:49.946Z,15.93
2023-05-01T06:33:29.784Z,15.97
2023-05-01T06:35:09.460Z,15.96
2023-05-01T06:36:49.229Z,15.99
2023-05-01T06:38:28.991Z,16.01
2023-05-01T06:40:08.836Z,16.06
2023-05-01T06:41:48.535Z,16.06
2023-05-01T06:43:28.320Z,16.1
2023-05-01T06:45:08.061Z,16.12
2023-05-01T06:46:47.824Z,16.17
2023-05-01T06:48:27.610Z,16.27
2023-05-01T06:50:07.410Z,44.92
2023-05-01T06:51:47.178Z,46.74
2023-05-01T06:53:26.962Z,48.06
2023-05-01T06:55:06.695Z,48.18
2023-05-01T06:56:46.449Z,47.95
2023-05-01T06:58:26.259Z,47.74
2023-05-01T07:00:05.934Z,47.63
2023-05-01T07:01:45.680Z,47.35
2023-05-01T07:05:05.264Z,47.21
2023-05-01T07:06:44.977Z,47.18
2023-05-01T07:08:24.745Z,47.27
2023-05-01T07:10:04.587Z,47.43
2023-05-01T07:11:44.282Z,47.48
2023-05-01T07:13:24.101Z,47.39
2023-05-01T07:15:03.853Z,47.28
2023-05-01T07:16:43.581Z,47.11
2023-05-01T07:18:23.347Z,47.11
2023-05-01T07:20:03.196Z,47.11
2023-05-01T07:21:42.905Z,47.08
2023-05-01T07:25:02.415Z,47.34
2023-05-01T07:26:42.163Z,47.51
2023-05-01T07:28:21.954Z,47.32
2023-05-01T07:30:01.690Z,47.03
2023-05-01T07:31:41.454Z,47
2023-05-01T07:33:21.201Z,46.87
2023-05-01T07:35:00.966Z,46.97
2023-05-01T07:36:40.730Z,47.13
2023-05-01T07:38:20.631Z,47.15
2023-05-01T07:40:00.417Z,47.16
2023-05-01T07:41:40.016Z,46.89
2023-05-01T07:43:19.856Z,46.71
2023-05-01T07:44:59.597Z,46.41
2023-05-01T07:46:39.327Z,46.61
2023-05-01T07:48:19.090Z,46.56
2023-05-01T07:49:58.858Z,46.52
2023-05-01T07:51:38.655Z,46.43
2023-05-01T07:53:18.446Z,46.78
2023-05-01T07:54:58.173Z,46.95
2023-05-01T07:56:37.901Z,47.35
2023-05-01T07:58:17.711Z,47.3
2023-05-01T07:59:57.450Z,47.25
2023-05-01T08:01:37.190Z,47.14
2023-05-01T08:03:16.950Z,47.28
2023-05-01T08:04:56.773Z,46.91
2023-05-01T08:06:36.467Z,46.94
2023-05-01T08:08:16.250Z,46.99
2023-05-01T08:09:56.027Z,46.79
2023-05-01T08:11:35.890Z,46.9
2023-05-01T08:14:55.342Z,46.72
2023-05-01T08:16:35.112Z,47.11
2023-05-01T08:18:14.829Z,47.15
2023-05-01T08:21:34.356Z,46.83
2023-05-01T08:24:53.985Z,47.21
2023-05-01T08:26:33.645Z,47.3
2023-05-01T08:28:13.479Z,47.34
2023-05-01T08:29:53.200Z,46.96
2023-05-01T08:31:32.944Z,47.05
2023-05-01T08:33:12.708Z,47.22
2023-05-01T08:34:52.491Z,47.19
2023-05-01T08:36:32.234Z,47.11
2023-05-01T08:38:12.004Z,47.28
2023-05-01T08:39:51.765Z,47.25
2023-05-01T08:41:31.564Z,46.99
2023-05-01T08:43:11.302Z,46.97
2023-05-01T08:44:51.114Z,46.96
2023-05-01T08:46:30.873Z,46.93
2023-05-01T08:48:10.589Z,47.14
2023-05-01T08:49:50.423Z,47.27
2023-05-01T08:51:30.117Z,46.98
2023-05-01T08:53:09.873Z,47.17
2023-05-01T08:54:49.639Z,47.31
2023-05-01T08:56:29.483Z,47.02
2023-05-01T08:58:09.175Z,46.71
2023-05-01T08:59:48.910Z,46.45
2023-05-01T09:01:28.729Z,46.9
2023-05-01T09:03:08.444Z,47.23
2023-05-01T09:04:48.280Z,47.34
2023-05-01T09:06:28.006Z,47.27
2023-05-01T09:08:07.755Z,47.13
2023-05-01T09:09:47.510Z,47
2023-05-01T09:11:27.283Z,47.05
2023-05-01T09:13:07.041Z,47.09
2023-05-01T09:14:46.797Z,47.23
2023-05-01T09:16:26.567Z,47.19
2023-05-01T09:18:06.341Z,46.75
2023-05-01T09:19:46.079Z,46.7
2023-05-01T09:21:25.871Z,46.8
2023-05-01T09:23:05.646Z,46.84
2023-05-01T09:24:45.406Z,47.1
2023-05-01T09:26:25.144Z,47.07
2023-05-01T09:29:44.824Z,46.73
2023-05-01T09:31:24.480Z,46.78
2023-05-01T09:33:04.217Z,46.83
2023-05-01T09:34:43.960Z,46.84
2023-05-01T09:36:23.734Z,46.93
2023-05-01T09:38:03.520Z,46.76
2023-05-01T09:39:43.355Z,46.88
2023-05-01T09:41:23.012Z,46.66
2023-05-01T09:43:02.827Z,46.71
2023-05-01T09:44:42.573Z,46.64
2023-05-01T09:48:02.126Z,46.75
2023-05-01T09:49:41.824Z,46.69
2023-05-01T09:51:21.734Z,46.59
2023-05-01T09:53:01.376Z,46.7
2023-05-01T09:54:41.144Z,46.76
2023-05-01T09:56:21.056Z,46.68
2023-05-01T09:58:00.669Z,46.49
2023-05-01T09:59:40.512Z,46.37
2023-05-01T10:01:20.339Z,46.07
2023-05-01T10:02:59.948Z,46.3
2023-05-01T10:04:39.893Z,46.8
2023-05-01T10:06:19.677Z,47
2023-05-01T10:07:59.507Z,47.22
2023-05-01T10:09:39.146Z,47.05
2023-05-01T10:11:18.765Z,46.54
2023-05-01T10:12:58.716Z,46.29
2023-05-01T10:14:38.379Z,46.56
2023-05-01T10:16:18.209Z,46.63
2023-05-01T10:17:58.000Z,46.56
2023-05-01T10:19:37.780Z,46.77
2023-05-01T10:21:17.553Z,46.52
2023-05-01T10:22:57.302Z,46.43
2023-05-01T10:24:37.054Z,46.32
2023-05-01T10:26:16.705Z,46.22
2023-05-01T10:27:56.579Z,46.24
2023-05-01T10:29:36.171Z,46.41
2023-05-01T10:31:16.108Z,46.63
2023-05-01T10:32:55.906Z,46.59
2023-05-01T10:34:35.588Z,46.44
2023-05-01T10:36:15.432Z,46.23
2023-05-01T10:37:55.155Z,46.26
2023-05-01T10:39:34.989Z,46.77
2023-05-01T10:41:14.702Z,47.11
2023-05-01T10:42:54.400Z,47.05
2023-05-01T10:44:34.207Z,46.95
2023-05-01T10:46:13.815Z,46.88
2023-05-01T10:47:53.712Z,46.66
2023-05-01T10:49:33.409Z,46.39
2023-05-01T10:51:13.274Z,46.37
2023-05-01T10:52:52.880Z,46.14
2023-05-01T10:54:32.882Z,46.14
2023-05-01T10:56:12.397Z,46.25
2023-05-01T10:57:52.188Z,46.31
2023-05-01T10:59:32.009Z,46.28
2023-05-01T11:01:11.762Z,46.29
2023-05-01T11:02:51.498Z,46.1
2023-05-01T11:04:31.339Z,46.12
2023-05-01T11:07:50.757Z,45.62
2023-05-01T11:09:30.534Z,45.87
2023-05-01T11:11:10.286Z,46.19
2023-05-01T11:12:50.136Z,45.99
2023-05-01T11:14:29.965Z,45.32
2023-05-01T11:16:09.567Z,45.94
2023-05-01T11:17:49.347Z,45.51
2023-05-01T11:19:29.111Z,45.29
2023-05-01T11:21:08.873Z,45.68
2023-05-01T11:22:48.638Z,46.94
2023-05-01T11:24:28.399Z,46.46
2023-05-01T11:27:47.917Z,47.01
2023-05-01T11:29:27.718Z,46.95
2023-05-01T11:31:07.502Z,47.09
2023-05-01T11:32:47.230Z,46.91
2023-05-01T11:34:26.984Z,46.66
2023-05-01T11:36:06.868Z,46.83
2023-05-01T11:37:46.588Z,47.31
2023-05-01T11:39:26.281Z,47.04
2023-05-01T11:41:06.130Z,46.35
2023-05-01T11:42:45.806Z,45.6
2023-05-01T11:44:25.569Z,46.12
2023-05-01T11:46:05.324Z,46.02
2023-05-01T11:47:45.100Z,46.01
2023-05-01T11:49:24.980Z,46.2
2023-05-01T11:51:04.611Z,46.22
2023-05-01T11:52:44.368Z,46.12
2023-05-01T11:54:24.225Z,45.99
2023-05-01T11:56:03.954Z,45.79
2023-05-01T11:57:43.682Z,45.6
2023-05-01T12:01:03.380Z,45.89
2023-05-01T12:02:43.074Z,45.57
2023-05-01T12:04:22.844Z,45.69
2023-05-01T12:06:02.639Z,45.56
2023-05-01T12:07:42.314Z,45.56
2023-05-01T12:09:22.025Z,44.81
2023-05-01T12:11:01.805Z,45.75
2023-05-01T12:12:41.626Z,45.54
2023-05-01T12:14:21.315Z,45.29
2023-05-01T12:16:01.270Z,46.31
2023-05-01T12:17:40.845Z,46.62
2023-05-01T12:19:20.759Z,46.45
2023-05-01T12:21:00.450Z,46.39
2023-05-01T12:22:40.179Z,46.65
2023-05-01T12:24:19.948Z,46.54
2023-05-01T12:25:59.668Z,46.53
2023-05-01T12:27:39.426Z,46.38
2023-05-01T12:29:19.248Z,46.18
2023-05-01T12:30:59.063Z,46.2
2023-05-01T12:32:38.738Z,46.16
2023-05-01T12:34:18.516Z,46.19
2023-05-01T12:35:58.256Z,46.09
2023-05-01T12:37:38.057Z,46.45
2023-05-01T12:39:17.866Z,46.69
2023-05-01T12:40:57.563Z,46.61
2023-05-01T12:42:37.296Z,46.38
2023-05-01T12:44:17.064Z,46.38
2023-05-01T12:45:56.952Z,46.75
2023-05-01T12:47:36.773Z,46.88
2023-05-01T12:49:16.351Z,46.8
2023-05-01T12:50:56.346Z,46.27
2023-05-01T12:52:35.889Z,45.95
2023-05-01T12:54:15.661Z,46.03
2023-05-01T12:55:55.491Z,46.05
2023-05-01T12:57:35.277Z,46.3
2023-05-01T12:59:15.019Z,46.47
2023-05-01T13:00:54.802Z,46.26
2023-05-01T13:02:34.471Z,46.11
2023-05-01T13:04:14.244Z,46.17
2023-05-01T13:05:54.020Z,45.67
2023-05-01T13:07:33.782Z,45.69
2023-05-01T13:09:13.605Z,45.38
2023-05-01T13:10:53.281Z,45.53
2023-05-01T13:12:33.055Z,45.63
2023-05-01T13:14:12.848Z,45.49
2023-05-01T13:15:52.574Z,45.88
2023-05-01T13:17:32.371Z,46.17
2023-05-01T13:19:12.112Z,46.33
2023-05-01T13:20:51.875Z,46.33
2023-05-01T13:22:31.776Z,46.47
2023-05-01T13:24:11.428Z,46.32
2023-05-01T13:25:51.185Z,46.64
2023-05-01T13:27:30.940Z,46.43
2023-05-01T13:29:10.761Z,45.92
2023-05-01T13:30:50.550Z,45.89
2023-05-01T13:32:30.243Z,46.11
2023-05-01T13:34:09.989Z,46.51
2023-05-01T13:35:49.750Z,46.35
2023-05-01T13:37:29.528Z,46.38
2023-05-01T13:39:09.310Z,46.37
2023-05-01T13:40:49.132Z,46.11
2023-05-01T13:42:28.902Z,46.12
2023-05-01T13:44:08.701Z,46.32
2023-05-01T13:45:48.418Z,46.38
2023-05-01T13:47:28.099Z,46.7
2023-05-01T13:49:08.012Z,46.78
2023-05-01T13:50:47.650Z,46.33
2023-05-01T13:52:27.463Z,45.9
2023-05-01T13:54:07.230Z,46.2
2023-05-01T13:55:46.946Z,45.97
2023-05-01T13:57:26.678Z,45.77
2023-05-01T13:59:06.565Z,45.73
2023-05-01T14:00:46.322Z,46.45
2023-05-01T14:02:25.972Z,46.1
2023-05-01T14:04:05.742Z,45.5
2023-05-01T14:05:45.511Z,45.83
2023-05-01T14:07:25.341Z,46.02
2023-05-01T14:09:05.028Z,45.61
2023-05-01T14:10:44.812Z,45.93
2023-05-01T14:12:24.553Z,46.37
2023-05-01T14:14:04.345Z,46.37
2023-05-01T14:15:44.195Z,46.29
2023-05-01T14:17:23.853Z,46.31
2023-05-01T14:19:03.748Z,46.12
2023-05-01T14:20:43.379Z,45.65
2023-05-01T14:22:23.137Z,45.89
2023-05-01T14:24:03.036Z,46.2
2023-05-01T14:25:42.693Z,46.4
2023-05-01T14:27:22.525Z,46.56
2023-05-01T14:29:02.192Z,46.3
2023-05-01T14:30:41.966Z,45.98
2023-05-01T14:32:21.748Z,45.85
2023-05-01T14:34:01.491Z,45.93
2023-05-01T14:37:21.050Z,46.72
2023-05-01T14:39:00.993Z,46.46
2023-05-01T14:40:40.564Z,46.36
2023-05-01T14:44:00.099Z,45.82
2023-05-01T14:45:39.891Z,45.53
2023-05-01T14:47:19.717Z,45.15
2023-05-01T14:48:59.417Z,45.54
2023-05-01T14:50:39.130Z,45.58
2023-05-01T14:52:18.899Z,45.31
2023-05-01T14:53:58.700Z,44.99
2023-05-01T14:55:38.538Z,44.59
2023-05-01T14:57:18.199Z,45.35
2023-05-01T14:58:58.056Z,45.44
2023-05-01T15:00:37.720Z,45.29
2023-05-01T15:02:17.488Z,44.97
2023-05-01T15:03:57.254Z,45.2
2023-05-01T15:07:16.774Z,46.1
2023-05-01T15:08:56.565Z,46.46
2023-05-01T15:10:36.302Z,46.26
2023-05-01T15:12:16.092Z,46.02
2023-05-01T15:13:55.870Z,45.6
2023-05-01T15:15:35.732Z,45.92
2023-05-01T15:17:15.451Z,45.74
2023-05-01T15:18:55.236Z,45.94
2023-05-01T15:20:34.926Z,45.95
2023-05-01T15:22:14.766Z,46.04
2023-05-01T15:23:54.430Z,46.11
2023-05-01T15:25:34.279Z,45.68
2023-05-01T15:27:13.956Z,45.44
2023-05-01T15:28:53.773Z,45.53
2023-05-01T15:30:33.496Z,45.35
2023-05-01T15:32:13.287Z,45.4
2023-05-01T15:33:53.015Z,45.39
2023-05-01T15:35:32.805Z,45.31
2023-05-01T15:37:12.552Z,45.26
2023-05-01T15:38:52.312Z,45.06
2023-05-01T15:40:32.075Z,44.93
2023-05-01T15:42:11.950Z,45.03
2023-05-01T15:43:51.632Z,45.11
2023-05-01T15:47:11.145Z,45.27
2023-05-01T15:48:50.971Z,45.34
2023-05-01T15:50:30.682Z,45.32
2023-05-01T15:52:10.422Z,45.34
2023-05-01T15:53:50.184Z,45.35
2023-05-01T15:57:09.734Z,45.44
2023-05-01T15:58:49.515Z,45.48
2023-05-01T16:00:29.332Z,45.46
2023-05-01T16:02:09.012Z,45.34
2023-05-01T16:03:48.771Z,45.26
2023-05-01T16:05:28.529Z,45.28
2023-05-01T16:07:08.280Z,45.2
2023-05-01T16:08:48.050Z,45.12
2023-05-01T16:10:27.877Z,45.08
2023-05-01T16:12:07.581Z,45.03
2023-05-01T16:13:47.352Z,45.02
2023-05-01T16:15:27.117Z,45.08
2023-05-01T16:17:06.885Z,45.08
2023-05-01T16:18:46.660Z,45.18
2023-05-01T16:20:26.479Z,45.16
2023-05-01T16:22:06.175Z,45.25
2023-05-01T16:23:45.932Z,45.15
2023-05-01T16:25:25.692Z,45.13
2023-05-01T16:27:05.512Z,45.24
2023-05-01T16:28:45.274Z,45.23
2023-05-01T16:30:24.999Z,45.16
2023-05-01T16:32:04.782Z,44.97
2023-05-01T16:33:44.506Z,44.84
2023-05-01T16:35:24.315Z,44.76
2023-05-01T16:37:04.127Z,44.7
2023-05-01T16:38:43.821Z,44.6
2023-05-01T16:40:23.700Z,44.57
2023-05-01T16:42:03.341Z,44.46
2023-05-01T16:43:43.149Z,44.46
2023-05-01T16:45:22.911Z,44.38
2023-05-01T16:47:02.677Z,44.18
2023-05-01T16:48:42.389Z,44.23
2023-05-01T16:50:22.163Z,44.26
2023-05-01T16:52:01.918Z,44.27
2023-05-01T16:53:41.675Z,44.25
2023-05-01T16:55:21.482Z,44.17
2023-05-01T16:57:01.227Z,44.18
2023-05-01T16:58:40.965Z,44.22
2023-05-01T17:00:20.830Z,44.22
2023-05-01T17:02:00.536Z,44.2
2023-05-01T17:03:40.410Z,44.23
2023-05-01T17:05:20.056Z,44.21
2023-05-01T17:06:59.804Z,44.1
2023-05-01T17:08:39.720Z,43.87
2023-05-01T17:10:19.466Z,43.73
2023-05-01T17:11:59.191Z,43.53
2023-05-01T17:13:38.854Z,43.27
2023-05-01T17:15:18.624Z,43.18
2023-05-01T17:16:58.385Z,42.99
2023-05-01T17:18:38.158Z,42.83
2023-05-01T17:20:17.979Z,42.71
2023-05-01T17:21:57.691Z,42.64
2023-05-01T17:23:37.490Z,42.49
2023-05-01T17:25:17.219Z,42.14
2023-05-01T17:26:57.087Z,41.98
2023-05-01T17:28:36.738Z,41.72
2023-05-01T17:31:56.391Z,41.32
2023-05-01T17:33:36.001Z,41.04
2023-05-01T17:35:15.782Z,40.84
2023-05-01T17:36:55.564Z,40.56
2023-05-01T17:38:35.310Z,40.18
2023-05-01T17:40:15.138Z,39.95
2023-05-01T17:41:54.887Z,39.56
2023-05-01T17:43:34.601Z,39.03
2023-05-01T17:45:14.374Z,38.68
2023-05-01T17:48:33.952Z,38
2023-05-01T17:50:13.793Z,37.32
2023-05-01T17:51:53.599Z,37.21
2023-05-01T17:53:33.186Z,37.2
2023-05-01T17:56:52.726Z,36.06
2023-05-01T17:58:32.486Z,35.39
2023-05-01T18:00:12.246Z,34.78
2023-05-01T18:01:52.079Z,33.34
2023-05-01T18:03:31.825Z,32.71
2023-05-01T18:05:11.636Z,31.1
2023-05-01T18:06:51.304Z,19.82
2023-05-01T18:08:31.152Z,14.98
2023-05-01T18:10:11.014Z,18.41
2023-05-01T18:11:50.588Z,14.46
2023-05-01T18:13:30.428Z,14.42
2023-05-01T18:15:10.138Z,29.55
2023-05-01T18:16:50.000Z,17.33
2023-05-01T18:18:29.677Z,22.36
2023-05-01T18:20:09.415Z,21.5
2023-05-01T18:21:49.236Z,13.33
2023-05-01T18:23:29.063Z,13.23
2023-05-01T18:25:08.789Z,13.19
2023-05-01T18:26:48.573Z,13.15
2023-05-01T18:28:28.320Z,13.14
2023-05-01T18:30:08.214Z,13.12
2023-05-01T18:31:47.818Z,13.09
2023-05-01T18:33:27.593Z,13.09
2023-05-01T18:35:07.383Z,13.08
2023-05-01T18:36:47.205Z,13.08
2023-05-01T18:38:26.865Z,13.06
2023-05-01T18:40:06.686Z,13.06
2023-05-01T18:41:46.349Z,13.03
2023-05-01T18:43:26.197Z,13.01
2023-05-01T18:45:05.882Z,13.01
2023-05-01T18:46:45.633Z,13
2023-05-01T18:48:25.399Z,12.99
2023-05-01T18:51:44.920Z,12.97
2023-05-01T18:53:24.697Z,12.94
2023-05-01T18:55:04.473Z,12.93
2023-05-01T18:56:44.217Z,12.88
2023-05-01T18:58:24.084Z,12.79
2023-05-01T19:00:03.874Z,11.01
2023-05-01T19:03:23.349Z,7.87
2023-05-01T19:06:42.808Z,5.39
2023-05-01T19:08:22.561Z,4.4
2023-05-01T19:11:42.093Z,2.94
2023-05-01T19:13:21.892Z,2.36
2023-05-01T19:16:41.390Z,1.56
2023-05-01T19:18:21.150Z,1.27
2023-05-01T19:20:01.154Z,1.03
2023-05-01T19:21:40.754Z,0.83
2023-05-01T19:23:20.557Z,0.7
2023-05-01T19:25:00.265Z,0.58
2023-05-01T19:26:40.016Z,0.5
2023-05-01T19:28:19.835Z,0.42
2023-05-01T19:29:59.673Z,0.36
2023-05-01T19:31:39.258Z,0.32
2023-05-01T19:33:19.033Z,0.28
2023-05-01T19:34:58.838Z,0.26
2023-05-01T19:36:38.571Z,0.24
2023-05-01T19:38:18.322Z,0.22
2023-05-01T19:39:58.121Z,0.2
2023-05-01T19:41:38.013Z,0.2
2023-05-01T19:44:57.379Z,0.17
2023-05-01T19:46:37.132Z,0.18
2023-05-01T19:48:16.922Z,0.16
2023-05-01T19:49:56.863Z,0.17
2023-05-01T19:51:36.467Z,0.17
2023-05-01T19:53:16.204Z,0.17
2023-05-01T19:54:55.964Z,0.16
2023-05-01T19:56:35.762Z,0.16
2023-05-01T19:58:15.478Z,0.16
2023-05-01T19:59:55.250Z,0.16
2023-05-01T20:01:35.146Z,0.15
2023-05-01T20:03:14.793Z,0.16
2023-05-01T20:04:54.571Z,0.16
2023-05-01T20:06:34.301Z,0.16
2023-05-01T20:08:14.112Z,0.16
2023-05-01T20:09:53.941Z,0.15
2023-05-01T20:13:13.389Z,0.14
2023-05-01T20:14:53.193Z,0.14
2023-05-01T20:16:32.927Z,0.14
2023-05-01T20:18:12.650Z,0.14
2023-05-01T20:19:52.444Z,0.14
2023-05-01T20:23:11.964Z,0.14
2023-05-01T20:24:51.819Z,0.14
2023-05-01T20:26:31.474Z,0.16
2023-05-01T20:28:11.306Z,0.15
2023-05-01T20:29:51.215Z,0.15
2023-05-01T20:34:50.334Z,0.15
2023-05-01T20:36:30.133Z,0.14
2023-05-01T20:38:09.821Z,0.14
2023-05-01T20:39:49.723Z,0.14
2023-05-01T20:41:29.406Z,0.14
2023-05-01T20:43:09.140Z,0.15
2023-05-01T20:44:49.048Z,0.15
2023-05-01T20:46:28.666Z,0.15
2023-05-01T20:48:08.401Z,0.15
2023-05-01T20:51:27.959Z,0.15
2023-05-01T20:53:07.707Z,0.15
2023-05-01T20:54:47.571Z,0.15
2023-05-01T20:56:27.229Z,0.15
2023-05-01T20:58:07.107Z,0.15
2023-05-01T20:59:46.901Z,0.15
2023-05-01T21:03:06.315Z,0.17
2023-05-01T21:04:46.067Z,0.15
2023-05-01T21:06:25.882Z,0.15
2023-05-01T21:08:05.564Z,0.15
2023-05-01T21:09:45.424Z,0.15
2023-05-01T21:11:25.185Z,0.15
2023-05-01T21:13:04.869Z,0.15
2023-05-01T21:14:44.660Z,0.15
2023-05-01T21:16:24.394Z,0.15
2023-05-01T21:18:04.196Z,0.15
2023-05-01T21:19:44.018Z,0.15
2023-05-01T21:21:23.754Z,0.15
2023-05-01T21:24:43.235Z,0.15
2023-05-01T21:26:22.972Z,0.15
2023-05-01T21:28:02.737Z,0.15
2023-05-01T21:29:42.514Z,0.15
2023-05-01T21:31:22.372Z,0.15
2023-05-01T21:33:02.035Z,0.15
2023-05-01T21:34:41.884Z,0.14
2023-05-01T21:36:21.551Z,0.14
2023-05-01T21:38:01.337Z,0.14
2023-05-01T21:39:41.078Z,0.14
2023-05-01T21:41:20.936Z,0.14
2023-05-01T21:43:00.654Z,0.14
2023-05-01T21:44:40.406Z,0.14
2023-05-01T21:46:20.150Z,0.15
2023-05-01T21:47:59.917Z,0.13
2023-05-01T21:49:39.709Z,0.13
2023-05-01T21:51:19.520Z,0.13
2023-05-01T21:52:59.195Z,0.13
2023-05-01T21:54:39.034Z,0.13
2023-05-01T21:57:58.486Z,0.13
2023-05-01T21:59:38.281Z,0.15
2023-05-01T22:02:57.831Z,0.14
2023-05-01T22:04:37.614Z,0.14
2023-05-01T22:07:57.062Z,0.14
2023-05-01T22:09:36.861Z,0.14
2023-05-01T22:11:16.606Z,0.14
2023-05-01T22:12:56.489Z,0.13
2023-05-01T22:14:36.139Z,0.13
2023-05-01T22:16:15.893Z,0.13
2023-05-01T22:17:55.762Z,0.13
2023-05-01T22:19:35.428Z,0.13
2023-05-01T22:21:15.221Z,0.15
2023-05-01T22:22:55.040Z,0.13
2023-05-01T22:24:34.727Z,0.13
2023-05-01T22:26:14.572Z,0.13
2023-05-01T22:27:54.386Z,0.14
2023-05-01T22:29:34.103Z,0.14
2023-05-01T22:31:13.838Z,0.14
2023-05-01T22:32:53.527Z,0.14
2023-05-01T22:34:33.290Z,0.14
2023-05-01T22:36:13.062Z,0.15
2023-05-01T22:37:52.831Z,0.15
2023-05-01T22:39:32.593Z,0.15
2023-05-01T22:41:12.475Z,0.15
2023-05-01T22:42:52.127Z,0.15
2023-05-01T22:46:11.687Z,0.15
2023-05-01T22:47:51.445Z,0.15
2023-05-01T22:49:31.169Z,0.15
2023-05-01T22:51:11.039Z,0.14
2023-05-01T22:52:50.864Z,0.14
2023-05-01T22:54:30.463Z,0.13
2023-05-01T22:56:10.231Z,0.14
2023-05-01T22:57:50.011Z,0.14
2023-05-01T22:59:29.813Z,0.14
2023-05-01T23:01:09.657Z,0.14
2023-05-01T23:04:29.038Z,0.14
2023-05-01T23:06:08.818Z,0.14